Fort Lauderdale, FL (33340)

3:20 PM EDT on September 02, 2014 (GMT -0400)
Mills Pond Park Area | Change Station
CLOSE
Current Station
Personal Weather Station
Location: Wilton Manors, FL
Elevation: 10 ft
Nearby Weather Stations

Elev 10 ft 26.16 °N, 80.16 °W | Updated 12 seconds ago

Scattered Clouds
Scattered Clouds
92.3 °F
Feels Like 102 °F
N
5.4
Wind Variable Wind from East
Gusts 7.4 mph

Today
High -- | Low -- °F
--% Chance of Precip.
Yesterday
High -- | Low -- °F
Precip. -- in
7:01 AM 7:39 PM
First Quarter, 54% visible
Pressure 30.04 in
Visibility 10.0 miles
Clouds Few 3400 ft
Scattered Clouds 4100 ft
Scattered Clouds 6500 ft
Heat Index 102 °F
Dew Point 73 °F
Humidity 55%
Rainfall 0.00 in
Snow Depth Not available.
UV 10 out of 12
Pollen 4.20 out of 12
Ozone Good
Flu Activity Not available.
METAR KFXE 021853Z 11012G18KT 10SM FEW034 SCT041 SCT065 32/23 A3004 RMK AO2 SLP173 T03220228

More Conditions Fewer Conditions

Pressure 30.04 in
Visibility 10.0 miles
Clouds Few 3400 ft
Scattered Clouds 4100 ft
Scattered Clouds 6500 ft
Heat Index 102 °F
Dew Point 73 °F
Humidity 55%
Rainfall 0.00 in
Snow Depth Not available.
UV 10 out of 12
Pollen 4.20 out of 12
Ozone Good
Flu Activity Not available.
METAR KFXE 021853Z 11012G18KT 10SM FEW034 SCT041 SCT065 32/23 A3004 RMK AO2 SLP173 T03220228

More Conditions Fewer Conditions

10-Day Weather Forecast

Almanac

Astronomy

Sep. 02, 2014 Rise Set
Actual Time 7:01 AM EDT 7:39 PM EDT
Civil Twilight 6:37 AM EDT 8:02 PM EDT
Nautical Twilight 6:10 AM EDT 8:29 PM EDT
Astronomical Twilight 5:42 AM EDT 8:57 PM EDT
Moon 2:03 PM EDT 12:19 AM EDT
Length of Visible Light 13h 24m
Length of Day
12h 38m
Tomorrow will be 1m 28s shorter.
First Quarter, 54% of the Moon is Illuminated
Today
First Quarter
Sep 8
Full
Sep 15
Last Quarter
Sep 24
New
Oct 1
First Quarter

Today's Extremes

State Highs State Lows

Community

WunderPhotos

Upload Photos

1,749,748 photos uploaded!

WunderBlogs® & News

By Dr. Jeff Masters
Director of Meteorology, Weather Underground
By Kari Strenfel
Meteorologist, Weather Underground
By Christopher C. Burt
Weather Historian, Weather Underground
September 2, 2014
September 2, 2014
September 2, 2014

Nearby

Air Quality

  Air Quality AQ Index Pollutant
Yesterday Good
OZONE
Current Good
OZONE
Tuesday Good
OZONE
Tuesday Good
PM2.5

Snow Depth

Station Depth Elevation
No new snow has been reported.

Earthquake Activity

City Distance Mag. Time & Date
No recent earthquake activity has been reported nearby.
Minimum magnitude displayed is 2.5.

Coastal Water Temperatures

Place Temperature
Virginia Key, FL 88.0 °F

Nearby Weather Stations